BAW908 EDDF-EGLL
Flight info
| Callsign | BAW908 |
|---|---|
| Flight time | N/A |
| Altitude | 36000 |
| Route | OBOKA3W/25C OBOKA Z29 TORNU DCT ABNED L980 LOGAN |
| Aircraft | A319/M-SDE3FGHIRWY/LB1 |
Departure
| Time | 2026-05-05 19:15 |
|---|---|
| Airport | Frankfurt Main Airport (EDDF) |
Arrival
| Time | N/A |
|---|---|
| Airport | London Heathrow Airport (EGLL) |
| Time | Latitude | Longitude | Altitude | Speed | Heading |
|---|---|---|---|---|---|
| 2026-05-05 18:27 | 50.05161 | 8.59072 | 356 ft | 0 kts | 339° |
| 2026-05-05 19:02 | 50.05139 | 8.59085 | 356 ft | 4 kts | 340° |
| 2026-05-05 19:02 | 50.05113 | 8.59099 | 354 ft | 4 kts | 340° |
| 2026-05-05 19:02 | 50.05088 | 8.59114 | 354 ft | 4 kts | 332° |
| 2026-05-05 19:03 | 50.05070 | 8.59138 | 354 ft | 4 kts | 287° |
| 2026-05-05 19:03 | 50.05069 | 8.59164 | 354 ft | 0 kts | 249° |
| 2026-05-05 19:10 | 50.05058 | 8.59120 | 358 ft | 14 kts | 249° |
| 2026-05-05 19:11 | 50.05020 | 8.58955 | 355 ft | 16 kts | 250° |
| 2026-05-05 19:11 | 50.04981 | 8.58799 | 358 ft | 15 kts | 249° |
| 2026-05-05 19:11 | 50.04934 | 8.58675 | 355 ft | 12 kts | 208° |
| 2026-05-05 19:11 | 50.04860 | 8.58698 | 360 ft | 10 kts | 159° |
| 2026-05-05 19:12 | 50.04797 | 8.58736 | 358 ft | 9 kts | 159° |
| 2026-05-05 19:12 | 50.04735 | 8.58768 | 358 ft | 10 kts | 170° |
| 2026-05-05 19:12 | 50.04673 | 8.58764 | 356 ft | 8 kts | 189° |
| 2026-05-05 19:12 | 50.04631 | 8.58754 | 357 ft | 0 kts | 188° |
| 2026-05-05 19:14 | 50.04627 | 8.58753 | 357 ft | 2 kts | 188° |
| 2026-05-05 19:14 | 50.04595 | 8.58728 | 360 ft | 10 kts | 219° |
| 2026-05-05 19:14 | 50.04524 | 8.58639 | 365 ft | 14 kts | 219° |
| 2026-05-05 19:14 | 50.04468 | 8.58511 | 364 ft | 21 kts | 250° |
| 2026-05-05 19:15 | 50.04349 | 8.58011 | 361 ft | 78 kts | 250° |
| 2026-05-05 19:15 | 50.04095 | 8.56948 | 361 ft | 131 kts | 249° |
| 2026-05-05 19:15 | 50.03727 | 8.55377 | 410 ft | 171 kts | 250° |
| 2026-05-05 19:15 | 50.03323 | 8.53681 | 1079 ft | 165 kts | 249° |
| 2026-05-05 19:16 | 50.02907 | 8.52013 | 1734 ft | 166 kts | 248° |
| 2026-05-05 19:16 | 50.02404 | 8.50315 | 2097 ft | 184 kts | 237° |
| 2026-05-05 19:16 | 50.01473 | 8.48788 | 2377 ft | 209 kts | 218° |
| 2026-05-05 19:16 | 50.00112 | 8.47962 | 3142 ft | 209 kts | 192° |
| 2026-05-05 19:17 | 49.98688 | 8.47640 | 3994 ft | 206 kts | 190° |
| 2026-05-05 19:17 | 49.97262 | 8.47345 | 4810 ft | 205 kts | 189° |
| 2026-05-05 19:17 | 49.95835 | 8.47032 | 5501 ft | 209 kts | 194° |
| 2026-05-05 19:17 | 49.94357 | 8.46415 | 5883 ft | 231 kts | 198° |
| 2026-05-05 19:18 | 49.92761 | 8.45606 | 6369 ft | 249 kts | 207° |
| 2026-05-05 19:18 | 49.91329 | 8.44114 | 6760 ft | 246 kts | 224° |
| 2026-05-05 19:18 | 49.90306 | 8.42075 | 6823 ft | 242 kts | 240° |
| 2026-05-05 19:18 | 49.89465 | 8.39815 | 6829 ft | 242 kts | 240° |
| 2026-05-05 19:19 | 49.88978 | 8.38230 | 6825 ft | 242 kts | 250° |
| 2026-05-05 19:19 | 49.88631 | 8.34741 | 6828 ft | 260 kts | 271° |
| 2026-05-05 19:19 | 49.88779 | 8.31911 | 6823 ft | 265 kts | 273° |
| 2026-05-05 19:19 | 49.88883 | 8.29981 | 6825 ft | 266 kts | 273° |
| 2026-05-05 19:20 | 49.89452 | 8.26282 | 6822 ft | 269 kts | 291° |
| 2026-05-05 19:20 | 49.90398 | 8.23763 | 6826 ft | 272 kts | 304° |
| 2026-05-05 19:20 | 49.91531 | 8.21413 | 6825 ft | 272 kts | 304° |
| 2026-05-05 19:20 | 49.92655 | 8.19061 | 6843 ft | 271 kts | 304° |
| 2026-05-05 19:21 | 49.93399 | 8.17497 | 6838 ft | 271 kts | 304° |
| 2026-05-05 19:21 | 49.95125 | 8.14639 | 6838 ft | 274 kts | 317° |
| 2026-05-05 19:21 | 49.96571 | 8.12712 | 6837 ft | 274 kts | 316° |
| 2026-05-05 19:21 | 49.98016 | 8.10784 | 6837 ft | 274 kts | 316° |
| 2026-05-05 19:22 | 49.99471 | 8.08839 | 7133 ft | 277 kts | 316° |
| 2026-05-05 19:22 | 50.00936 | 8.06879 | 8010 ft | 278 kts | 316° |
| 2026-05-05 19:22 | 50.02408 | 8.04910 | 8870 ft | 281 kts | 316° |
| 2026-05-05 19:22 | 50.03895 | 8.02918 | 9718 ft | 284 kts | 316° |
| 2026-05-05 19:23 | 50.05429 | 8.00854 | 10140 ft | 302 kts | 316° |
| 2026-05-05 19:23 | 50.07069 | 7.98638 | 10463 ft | 320 kts | 316° |
| 2026-05-05 19:23 | 50.08752 | 7.96371 | 11083 ft | 327 kts | 316° |
| 2026-05-05 19:23 | 50.10487 | 7.94041 | 11781 ft | 331 kts | 316° |
| 2026-05-05 19:24 | 50.12244 | 7.91679 | 12496 ft | 335 kts | 316° |
| 2026-05-05 19:24 | 50.13442 | 7.90066 | 12968 ft | 338 kts | 316° |
| 2026-05-05 19:24 | 50.15821 | 7.86865 | 13876 ft | 343 kts | 316° |
| 2026-05-05 19:24 | 50.17641 | 7.84414 | 14466 ft | 348 kts | 316° |
| 2026-05-05 19:25 | 50.19481 | 7.81931 | 15054 ft | 352 kts | 316° |
| 2026-05-05 19:25 | 50.21342 | 7.79413 | 15661 ft | 356 kts | 317° |
| 2026-05-05 19:25 | 50.23223 | 7.76867 | 16264 ft | 359 kts | 317° |
| 2026-05-05 19:25 | 50.25186 | 7.74389 | 16854 ft | 365 kts | 324° |
| 2026-05-05 19:26 | 50.27422 | 7.72450 | 17443 ft | 371 kts | 334° |
| 2026-05-05 19:26 | 50.29805 | 7.70835 | 18042 ft | 375 kts | 335° |
| 2026-05-05 19:26 | 50.32213 | 7.69202 | 18565 ft | 379 kts | 335° |
| 2026-05-05 19:26 | 50.34638 | 7.67547 | 19079 ft | 382 kts | 335° |
| 2026-05-05 19:27 | 50.37090 | 7.65868 | 19596 ft | 386 kts | 335° |
| 2026-05-05 19:27 | 50.39563 | 7.64169 | 20117 ft | 389 kts | 335° |
| 2026-05-05 19:27 | 50.42057 | 7.62456 | 20612 ft | 394 kts | 335° |
| 2026-05-05 19:27 | 50.44575 | 7.60724 | 21114 ft | 397 kts | 335° |
| 2026-05-05 19:28 | 50.46261 | 7.59562 | 21439 ft | 400 kts | 335° |
| 2026-05-05 19:28 | 50.49683 | 7.57200 | 22102 ft | 404 kts | 336° |
| 2026-05-05 19:28 | 50.52271 | 7.55409 | 22589 ft | 408 kts | 336° |
| 2026-05-05 19:28 | 50.54876 | 7.53593 | 23079 ft | 411 kts | 334° |
| 2026-05-05 19:29 | 50.57379 | 7.51371 | 23524 ft | 414 kts | 326° |
| 2026-05-05 19:29 | 50.59799 | 7.48892 | 23916 ft | 417 kts | 326° |
| 2026-05-05 19:29 | 50.62217 | 7.46414 | 24319 ft | 420 kts | 327° |
| 2026-05-05 19:29 | 50.64675 | 7.43896 | 24750 ft | 422 kts | 327° |
| 2026-05-05 19:30 | 50.67150 | 7.41359 | 25095 ft | 426 kts | 327° |
| 2026-05-05 19:30 | 50.69503 | 7.38512 | 25456 ft | 429 kts | 314° |
| 2026-05-05 19:30 | 50.71289 | 7.34768 | 25826 ft | 429 kts | 297° |
| 2026-05-05 19:30 | 50.72655 | 7.30558 | 26210 ft | 431 kts | 295° |
| 2026-05-05 19:31 | 50.74011 | 7.26312 | 26594 ft | 434 kts | 295° |
| 2026-05-05 19:31 | 50.75370 | 7.22043 | 26972 ft | 436 kts | 295° |
| 2026-05-05 19:31 | 50.76734 | 7.17751 | 27345 ft | 439 kts | 295° |
| 2026-05-05 19:31 | 50.78109 | 7.13422 | 27720 ft | 442 kts | 295° |
| 2026-05-05 19:32 | 50.79489 | 7.09071 | 28113 ft | 444 kts | 295° |
| 2026-05-05 19:32 | 50.80878 | 7.04689 | 28481 ft | 447 kts | 295° |
| 2026-05-05 19:32 | 50.82274 | 7.00287 | 28888 ft | 449 kts | 295° |
| 2026-05-05 19:32 | 50.83677 | 6.95856 | 29256 ft | 452 kts | 295° |
| 2026-05-05 19:33 | 50.85084 | 6.91397 | 29620 ft | 454 kts | 295° |
| 2026-05-05 19:33 | 50.86497 | 6.86903 | 29958 ft | 457 kts | 295° |
| 2026-05-05 19:33 | 50.87890 | 6.82449 | 30253 ft | 459 kts | 295° |
| 2026-05-05 19:33 | 50.89330 | 6.77837 | 30543 ft | 462 kts | 295° |
| 2026-05-05 19:34 | 50.90757 | 6.73267 | 30814 ft | 464 kts | 295° |
| 2026-05-05 19:34 | 50.92176 | 6.68730 | 31086 ft | 466 kts | 295° |
| 2026-05-05 19:34 | 50.93621 | 6.64101 | 31359 ft | 468 kts | 294° |
| 2026-05-05 19:35 | 50.96494 | 6.54842 | 32189 ft | 467 kts | 294° |
| 2026-05-05 19:35 | 50.97923 | 6.50220 | 32584 ft | 466 kts | 294° |
| 2026-05-05 19:35 | 50.99370 | 6.45538 | 32973 ft | 466 kts | 294° |
| 2026-05-05 19:35 | 51.00778 | 6.40981 | 33348 ft | 466 kts | 294° |
| 2026-05-05 19:36 | 51.02204 | 6.36363 | 33751 ft | 466 kts | 294° |
| 2026-05-05 19:36 | 51.03628 | 6.31744 | 34091 ft | 465 kts | 293° |
| 2026-05-05 19:36 | 51.05047 | 6.27131 | 34445 ft | 464 kts | 293° |
| 2026-05-05 19:36 | 51.06475 | 6.22469 | 34841 ft | 462 kts | 293° |
| 2026-05-05 19:37 | 51.07858 | 6.17944 | 35212 ft | 460 kts | 293° |
| 2026-05-05 19:37 | 51.09252 | 6.13373 | 35586 ft | 458 kts | 293° |
| 2026-05-05 19:37 | 51.10639 | 6.08814 | 35813 ft | 457 kts | 293° |
| 2026-05-05 19:38 | 51.13388 | 5.99742 | 35865 ft | 453 kts | 293° |
| 2026-05-05 19:38 | 51.16126 | 5.90702 | 35863 ft | 452 kts | 293° |
| 2026-05-05 19:39 | 51.18830 | 5.81658 | 35867 ft | 452 kts | 292° |
| 2026-05-05 19:39 | 51.21323 | 5.72508 | 35865 ft | 448 kts | 289° |
| 2026-05-05 19:40 | 51.23673 | 5.63311 | 35871 ft | 447 kts | 289° |
| 2026-05-05 19:40 | 51.26036 | 5.54126 | 35870 ft | 447 kts | 289° |
| 2026-05-05 19:41 | 51.28028 | 5.46496 | 35871 ft | 447 kts | 290° |
| 2026-05-05 19:41 | 51.30424 | 5.37344 | 35868 ft | 447 kts | 290° |
| 2026-05-05 19:42 | 51.32809 | 5.28164 | 35875 ft | 447 kts | 289° |
| 2026-05-05 19:42 | 51.35184 | 5.18977 | 35896 ft | 446 kts | 289° |
| 2026-05-05 19:43 | 51.37549 | 5.09782 | 35894 ft | 447 kts | 289° |
| 2026-05-05 19:43 | 51.39912 | 5.00585 | 35893 ft | 446 kts | 289° |
| 2026-05-05 19:44 | 51.42259 | 4.91363 | 35895 ft | 446 kts | 289° |
| 2026-05-05 19:44 | 51.44600 | 4.82142 | 35891 ft | 446 kts | 289° |
| 2026-05-05 19:45 | 51.46931 | 4.72927 | 35906 ft | 445 kts | 289° |
| 2026-05-05 19:45 | 51.49238 | 4.63791 | 35908 ft | 444 kts | 289° |
| 2026-05-05 19:46 | 51.51545 | 4.54612 | 35913 ft | 442 kts | 289° |
| 2026-05-05 19:46 | 51.53836 | 4.45458 | 35907 ft | 441 kts | 289° |
| 2026-05-05 19:47 | 51.56071 | 4.36496 | 35894 ft | 425 kts | 289° |
| 2026-05-05 19:47 | 51.57154 | 4.32148 | 35893 ft | 413 kts | 288° |
| 2026-05-05 19:47 | 51.58203 | 4.27919 | 35893 ft | 403 kts | 288° |
| 2026-05-05 19:48 | 51.60262 | 4.19584 | 35895 ft | 399 kts | 288° |
| 2026-05-05 19:48 | 51.62305 | 4.11285 | 35892 ft | 398 kts | 288° |
| 2026-05-05 19:49 | 51.64333 | 4.02987 | 35894 ft | 398 kts | 288° |
| 2026-05-05 19:49 | 51.66362 | 3.94688 | 35899 ft | 398 kts | 288° |
| 2026-05-05 19:50 | 51.68377 | 3.86382 | 35913 ft | 398 kts | 288° |
| 2026-05-05 19:50 | 51.70382 | 3.78065 | 35909 ft | 398 kts | 288° |
| 2026-05-05 19:51 | 51.72395 | 3.69753 | 35904 ft | 398 kts | 288° |
| 2026-05-05 19:51 | 51.74393 | 3.61492 | 35908 ft | 398 kts | 288° |
| 2026-05-05 19:52 | 51.76391 | 3.53162 | 35915 ft | 397 kts | 288° |
| 2026-05-05 19:52 | 51.78377 | 3.44839 | 35921 ft | 397 kts | 288° |
| 2026-05-05 19:53 | 51.80360 | 3.36500 | 35931 ft | 397 kts | 288° |
| 2026-05-05 19:53 | 51.82330 | 3.28164 | 35937 ft | 397 kts | 287° |
| 2026-05-05 19:54 | 51.84135 | 3.19759 | 35938 ft | 393 kts | 279° |
| 2026-05-05 19:54 | 51.84527 | 3.11046 | 35938 ft | 386 kts | 261° |
| 2026-05-05 19:55 | 51.83963 | 3.02437 | 35936 ft | 385 kts | 260° |
| 2026-05-05 19:55 | 51.83399 | 2.93832 | 35933 ft | 385 kts | 261° |
| 2026-05-05 19:56 | 51.82831 | 2.85229 | 35936 ft | 385 kts | 261° |
| 2026-05-05 19:56 | 51.82255 | 2.76671 | 35931 ft | 385 kts | 261° |
| 2026-05-05 19:57 | 51.81667 | 2.68048 | 35931 ft | 386 kts | 260° |
| 2026-05-05 19:57 | 51.81575 | 2.63709 | 35919 ft | 390 kts | 275° |
| 2026-05-05 19:57 | 51.82306 | 2.59479 | 35922 ft | 396 kts | 294° |
| 2026-05-05 19:57 | 51.83864 | 2.55791 | 35923 ft | 401 kts | 313° |
| 2026-05-05 19:58 | 51.86093 | 2.53069 | 35916 ft | 406 kts | 332° |
| 2026-05-05 19:58 | 51.88775 | 2.51641 | 35919 ft | 408 kts | 352° |
| 2026-05-05 19:58 | 51.91609 | 2.51723 | 35909 ft | 408 kts | 13° |
| 2026-05-05 19:58 | 51.94221 | 2.53271 | 35909 ft | 405 kts | 33° |
| 2026-05-05 19:59 | 51.96399 | 2.56128 | 35951 ft | 403 kts | 52° |
| 2026-05-05 19:59 | 51.97887 | 2.59944 | 35950 ft | 400 kts | 72° |
| 2026-05-05 19:59 | 51.98584 | 2.64285 | 35959 ft | 398 kts | 84° |
| 2026-05-05 20:00 | 51.99256 | 2.73207 | 35966 ft | 399 kts | 88° |
| 2026-05-05 20:00 | 51.99674 | 2.82189 | 35943 ft | 398 kts | 94° |
| 2026-05-05 20:00 | 51.99267 | 2.86552 | 35945 ft | 389 kts | 112° |
| 2026-05-05 20:01 | 51.98080 | 2.90434 | 35948 ft | 382 kts | 130° |
| 2026-05-05 20:01 | 51.96274 | 2.93502 | 35933 ft | 375 kts | 147° |
| 2026-05-05 20:01 | 51.94018 | 2.95522 | 35924 ft | 369 kts | 163° |
| 2026-05-05 20:01 | 51.91525 | 2.96338 | 35918 ft | 365 kts | 180° |
| 2026-05-05 20:02 | 51.89015 | 2.95912 | 35909 ft | 364 kts | 196° |
| 2026-05-05 20:02 | 51.86691 | 2.94308 | 35913 ft | 364 kts | 212° |
| 2026-05-05 20:02 | 51.84749 | 2.91678 | 35923 ft | 367 kts | 228° |
| 2026-05-05 20:02 | 51.83358 | 2.88209 | 35911 ft | 372 kts | 245° |
| 2026-05-05 20:03 | 51.82663 | 2.84161 | 35911 ft | 377 kts | 261° |
| 2026-05-05 20:03 | 51.82141 | 2.75675 | 35912 ft | 381 kts | 261° |
| 2026-05-05 20:04 | 51.81608 | 2.67132 | 35917 ft | 383 kts | 261° |
| 2026-05-05 20:04 | 51.81676 | 2.62813 | 35905 ft | 389 kts | 278° |
| 2026-05-05 20:04 | 51.82594 | 2.58671 | 35911 ft | 396 kts | 298° |
| 2026-05-05 20:04 | 51.84318 | 2.55188 | 35914 ft | 401 kts | 317° |
| 2026-05-05 20:05 | 51.86681 | 2.52767 | 35914 ft | 405 kts | 338° |
| 2026-05-05 20:05 | 51.89390 | 2.51728 | 35917 ft | 407 kts | 358° |
| 2026-05-05 20:05 | 51.92195 | 2.52191 | 35915 ft | 407 kts | 18° |
| 2026-05-05 20:05 | 51.94735 | 2.54136 | 35929 ft | 405 kts | 39° |
| 2026-05-05 20:06 | 51.96730 | 2.57319 | 35951 ft | 404 kts | 58° |
| 2026-05-05 20:06 | 51.97964 | 2.61357 | 35950 ft | 399 kts | 78° |
| 2026-05-05 20:06 | 51.98489 | 2.65768 | 35952 ft | 398 kts | 85° |
| 2026-05-05 20:07 | 51.99094 | 2.74709 | 35945 ft | 399 kts | 88° |
| 2026-05-05 20:07 | 51.99379 | 2.83674 | 35934 ft | 394 kts | 101° |
| 2026-05-05 20:07 | 51.98672 | 2.87909 | 35944 ft | 386 kts | 119° |
| 2026-05-05 20:08 | 51.97229 | 2.91528 | 35943 ft | 379 kts | 136° |
| 2026-05-05 20:08 | 51.95212 | 2.94199 | 35929 ft | 372 kts | 154° |
| 2026-05-05 20:08 | 51.92835 | 2.95712 | 35925 ft | 366 kts | 171° |
| 2026-05-05 20:08 | 51.90311 | 2.95999 | 35916 ft | 364 kts | 187° |
| 2026-05-05 20:09 | 51.87858 | 2.95067 | 35906 ft | 364 kts | 203° |
| 2026-05-05 20:09 | 51.85685 | 2.92993 | 35908 ft | 365 kts | 219° |
| 2026-05-05 20:09 | 51.84003 | 2.89979 | 35907 ft | 369 kts | 236° |
| 2026-05-05 20:09 | 51.82932 | 2.86199 | 35911 ft | 374 kts | 253° |
| 2026-05-05 20:10 | 51.82528 | 2.82028 | 35915 ft | 378 kts | 261° |
| 2026-05-05 20:10 | 51.81994 | 2.73530 | 35909 ft | 381 kts | 261° |
| 2026-05-05 20:11 | 51.81544 | 2.64956 | 35909 ft | 386 kts | 270° |
| 2026-05-05 20:11 | 51.82042 | 2.60675 | 35908 ft | 392 kts | 288° |
| 2026-05-05 20:11 | 51.83374 | 2.56809 | 35911 ft | 398 kts | 308° |
| 2026-05-05 20:11 | 51.85439 | 2.53818 | 35905 ft | 403 kts | 328° |
| 2026-05-05 20:12 | 51.88025 | 2.52083 | 35917 ft | 406 kts | 348° |
| 2026-05-05 20:12 | 51.90835 | 2.51827 | 35915 ft | 407 kts | 8° |
| 2026-05-05 20:12 | 51.93547 | 2.53092 | 35949 ft | 407 kts | 28° |
| 2026-05-05 20:12 | 51.95855 | 2.55732 | 35950 ft | 407 kts | 49° |
| 2026-05-05 20:13 | 51.97474 | 2.59444 | 35954 ft | 403 kts | 69° |
| 2026-05-05 20:13 | 51.98257 | 2.63757 | 35960 ft | 398 kts | 84° |
| 2026-05-05 20:13 | 51.98661 | 2.68215 | 35951 ft | 399 kts | 86° |
| 2026-05-05 20:14 | 51.99185 | 2.77133 | 35948 ft | 399 kts | 89° |
| 2026-05-05 20:14 | 51.99061 | 2.86018 | 35938 ft | 389 kts | 111° |
| 2026-05-05 20:14 | 51.97939 | 2.89938 | 35924 ft | 381 kts | 129° |
| 2026-05-05 20:15 | 51.96171 | 2.93063 | 35914 ft | 373 kts | 146° |
| 2026-05-05 20:15 | 51.93943 | 2.95123 | 35906 ft | 367 kts | 163° |
| 2026-05-05 20:15 | 51.91468 | 2.95977 | 35913 ft | 363 kts | 179° |
| 2026-05-05 20:15 | 51.88962 | 2.95595 | 35911 ft | 362 kts | 195° |
| 2026-05-05 20:16 | 51.86642 | 2.94038 | 35898 ft | 363 kts | 212° |
| 2026-05-05 20:16 | 51.84699 | 2.91412 | 35949 ft | 369 kts | 228° |
| 2026-05-05 20:16 | 51.83307 | 2.87891 | 35946 ft | 376 kts | 245° |
| 2026-05-05 20:16 | 51.82639 | 2.83770 | 35946 ft | 383 kts | 261° |
| 2026-05-05 20:17 | 51.82374 | 2.79463 | 35943 ft | 386 kts | 261° |
| 2026-05-05 20:17 | 51.81842 | 2.70812 | 35945 ft | 387 kts | 261° |
| 2026-05-05 20:18 | 51.81767 | 2.62127 | 35945 ft | 393 kts | 281° |
| 2026-05-05 20:18 | 51.82800 | 2.58015 | 35945 ft | 399 kts | 300° |
| 2026-05-05 20:18 | 51.83855 | 2.55774 | 35940 ft | 402 kts | 312° |